createdAt,value
2019-01-12T00:01:35.254Z,27.33
2019-01-12T00:04:03.864Z,28.63
2019-01-12T00:06:32.507Z,27.43
2019-01-12T00:09:01.148Z,30.70
2019-01-12T00:11:29.824Z,29.17
2019-01-12T00:13:58.398Z,39.87
2019-01-12T00:16:26.961Z,25.17
2019-01-12T00:18:55.638Z,25.40
2019-01-12T00:21:24.198Z,26.20
2019-01-12T00:23:52.771Z,34.90
2019-01-12T00:26:21.443Z,31.70
2019-01-12T00:28:50.013Z,30.83
2019-01-12T00:31:18.647Z,27.87
2019-01-12T00:33:47.319Z,34.83
2019-01-12T00:36:15.950Z,46.20
2019-01-12T00:38:44.510Z,27.13
2019-01-12T00:41:13.838Z,34.67
2019-01-12T00:43:42.583Z,33.17
2019-01-12T00:46:11.210Z,32.20
2019-01-12T00:48:39.744Z,24.73
2019-01-12T00:51:08.321Z,40.77
2019-01-12T00:53:36.909Z,34.63
2019-01-12T00:56:05.495Z,32.97
2019-01-12T00:58:34.124Z,21.30
2019-01-12T01:01:02.687Z,25.13
2019-01-12T01:03:31.291Z,31.60
2019-01-12T01:05:59.857Z,23.57
2019-01-12T01:08:28.492Z,36.10
2019-01-12T01:10:57.097Z,22.73
2019-01-12T01:13:25.656Z,20.47
2019-01-12T01:15:54.217Z,23.13
2019-01-12T01:18:22.830Z,27.53
2019-01-12T01:20:51.663Z,28.30
2019-01-12T01:23:20.224Z,29.10
2019-01-12T01:25:48.895Z,30.10
2019-01-12T01:28:17.544Z,32.57
2019-01-12T01:30:46.178Z,26.00
2019-01-12T01:33:14.868Z,23.83
2019-01-12T01:35:43.431Z,21.07
2019-01-12T01:38:11.995Z,24.20
2019-01-12T01:40:40.697Z,20.60
2019-01-12T01:43:09.265Z,23.57
2019-01-12T01:45:37.826Z,17.57
2019-01-12T01:48:06.419Z,17.50
2019-01-12T01:50:34.984Z,19.77
2019-01-12T01:53:03.617Z,16.70
2019-01-12T01:55:32.236Z,13.43
2019-01-12T01:58:00.790Z,17.53
2019-01-12T02:00:29.354Z,20.60
2019-01-12T02:02:57.959Z,27.33
2019-01-12T02:05:26.595Z,14.97
2019-01-12T02:07:55.228Z,15.83
2019-01-12T02:10:24.276Z,15.67
2019-01-12T02:12:52.860Z,18.07
2019-01-12T02:15:23.081Z,15.73
2019-01-12T02:17:51.759Z,22.93
2019-01-12T02:20:20.255Z,20.23
2019-01-12T02:22:48.826Z,18.67
2019-01-12T02:25:17.355Z,17.47
2019-01-12T02:27:45.919Z,21.33
2019-01-12T02:30:22.951Z,16.27
2019-01-12T02:32:51.438Z,12.67
2019-01-12T02:35:20.000Z,24.53
2019-01-12T02:37:48.621Z,18.40
2019-01-12T02:40:17.308Z,18.03
2019-01-12T02:42:45.802Z,15.77
2019-01-12T02:45:14.579Z,18.83
2019-01-12T02:47:43.143Z,14.57
2019-01-12T02:50:12.914Z,20.13
2019-01-12T02:52:41.596Z,17.73
2019-01-12T02:55:10.218Z,8.60
2019-01-12T02:57:38.777Z,10.40
2019-01-12T03:00:16.565Z,16.57
2019-01-12T03:02:45.134Z,12.53
2019-01-12T03:05:13.639Z,16.43
2019-01-12T03:07:42.327Z,18.17
2019-01-12T03:10:12.898Z,21.53
2019-01-12T03:12:41.455Z,15.30
2019-01-12T03:15:12.750Z,8.50
2019-01-12T03:17:41.367Z,11.87
2019-01-12T03:20:13.048Z,11.97
2019-01-12T03:22:41.727Z,14.13
2019-01-12T03:25:17.536Z,14.93
2019-01-12T03:27:40.566Z,25.63
2019-01-12T03:30:12.233Z,14.63
2019-01-12T03:32:40.814Z,16.67
2019-01-12T03:35:09.296Z,15.47
2019-01-12T03:37:37.961Z,19.37
2019-01-12T03:40:12.196Z,16.80
2019-01-12T03:42:40.702Z,17.87
2019-01-12T03:45:11.599Z,22.53
2019-01-12T03:47:40.233Z,17.13
2019-01-12T03:50:10.728Z,16.40
2019-01-12T03:52:39.336Z,16.73
2019-01-12T03:55:07.897Z,20.60
2019-01-12T03:57:36.397Z,14.17
2019-01-12T04:00:19.189Z,28.07
2019-01-12T04:02:47.815Z,20.13
2019-01-12T04:05:16.833Z,20.83
2019-01-12T04:07:45.364Z,21.93
2019-01-12T04:10:14.023Z,25.93
2019-01-12T04:12:42.589Z,23.70
2019-01-12T04:15:14.253Z,20.07
2019-01-12T04:17:42.751Z,27.30
2019-01-12T04:20:13.587Z,16.27
2019-01-12T04:22:42.201Z,24.37
2019-01-12T04:25:10.763Z,20.30
2019-01-12T04:27:39.343Z,21.80
2019-01-12T04:30:13.992Z,28.80
2019-01-12T04:32:42.563Z,29.50
2019-01-12T04:35:11.126Z,31.30
2019-01-12T04:37:39.739Z,29.03
2019-01-12T04:40:11.468Z,23.00
2019-01-12T04:42:40.027Z,24.63
2019-01-12T04:45:09.340Z,23.80
2019-01-12T04:47:37.900Z,26.37
2019-01-12T04:50:09.500Z,32.03
2019-01-12T04:52:38.186Z,32.80
2019-01-12T04:55:07.050Z,20.63
2019-01-12T04:57:35.610Z,18.97
2019-01-12T05:00:06.207Z,25.37
2019-01-12T05:02:34.770Z,31.00
2019-01-12T05:05:03.335Z,27.63
2019-01-12T05:07:31.850Z,30.90
2019-01-12T05:10:00.383Z,27.10
2019-01-12T05:12:28.845Z,24.37
2019-01-12T05:14:57.450Z,33.27
2019-01-12T05:17:26.013Z,24.37
2019-01-12T05:19:54.578Z,30.00
2019-01-12T05:22:23.183Z,31.60
2019-01-12T05:24:51.749Z,33.77
2019-01-12T05:27:20.320Z,35.53
2019-01-12T05:29:48.917Z,28.30
2019-01-12T05:32:17.411Z,32.33
2019-01-12T05:34:45.987Z,26.23
2019-01-12T05:37:14.595Z,32.73
2019-01-12T05:39:43.148Z,26.83
2019-01-12T05:42:11.637Z,30.83
2019-01-12T05:44:40.254Z,28.40
2019-01-12T05:47:08.816Z,21.93
2019-01-12T05:49:37.380Z,33.03
2019-01-12T05:52:05.926Z,43.37
2019-01-12T05:54:34.487Z,29.27
2019-01-12T05:57:02.995Z,33.83
2019-01-12T05:59:31.587Z,26.30
2019-01-12T06:02:00.159Z,30.43
2019-01-12T06:04:28.735Z,25.80
2019-01-12T06:06:57.344Z,25.80
2019-01-12T06:09:25.909Z,26.17
2019-01-12T06:11:54.539Z,27.00
2019-01-12T06:14:23.138Z,27.03
2019-01-12T06:16:51.706Z,29.67
2019-01-12T06:19:20.327Z,28.37
2019-01-12T06:21:48.936Z,27.13
2019-01-12T06:24:17.493Z,27.03
2019-01-12T06:26:46.072Z,22.43
2019-01-12T06:29:14.741Z,26.60
2019-01-12T06:31:43.252Z,19.90
2019-01-12T06:34:11.898Z,31.67
2019-01-12T06:36:40.495Z,23.33
2019-01-12T06:39:09.369Z,14.77
2019-01-12T06:41:37.998Z,22.60
2019-01-12T06:44:06.626Z,19.27
2019-01-12T06:46:35.185Z,23.67
2019-01-12T06:49:03.746Z,20.50
2019-01-12T06:51:32.354Z,21.53
2019-01-12T06:54:00.911Z,13.40
2019-01-12T06:56:29.473Z,24.13
2019-01-12T06:58:58.147Z,22.67
2019-01-12T07:01:26.702Z,23.87
2019-01-12T07:03:55.337Z,23.07
2019-01-12T07:06:24.797Z,27.03
2019-01-12T07:08:53.288Z,20.63
2019-01-12T07:11:21.779Z,26.13
2019-01-12T07:13:50.451Z,33.70
2019-01-12T07:16:19.090Z,18.43
2019-01-12T07:18:47.637Z,26.77
2019-01-12T07:21:16.315Z,30.33
2019-01-12T07:23:44.872Z,27.27
2019-01-12T07:26:17.487Z,21.60
2019-01-12T07:28:43.978Z,30.00
2019-01-12T07:31:12.609Z,31.07
2019-01-12T07:33:41.235Z,28.77
2019-01-12T07:36:09.910Z,25.10
2019-01-12T07:38:38.554Z,31.73
2019-01-12T07:41:07.198Z,25.57
2019-01-12T07:43:35.814Z,21.20
2019-01-12T07:46:04.458Z,25.30
2019-01-12T07:48:33.023Z,26.70
2019-01-12T07:51:01.656Z,21.27
2019-01-12T07:53:30.358Z,25.43
2019-01-12T07:55:58.923Z,22.00
2019-01-12T07:58:27.599Z,32.17
2019-01-12T08:00:56.164Z,24.73
2019-01-12T08:03:24.814Z,32.33
2019-01-12T08:05:53.426Z,24.67
2019-01-12T08:08:22.050Z,24.67
2019-01-12T08:10:50.672Z,26.73
2019-01-12T08:13:19.307Z,20.37
2019-01-12T08:15:47.936Z,21.43
2019-01-12T08:18:16.451Z,23.43
2019-01-12T08:20:45.042Z,20.00
2019-01-12T08:23:13.681Z,13.47
2019-01-12T08:25:42.316Z,23.03
2019-01-12T08:28:10.925Z,29.70
2019-01-12T08:30:39.481Z,34.33
2019-01-12T08:33:08.047Z,36.43
2019-01-12T08:35:37.044Z,49.43
2019-01-12T08:38:05.535Z,38.30
2019-01-12T08:40:34.174Z,52.87
2019-01-12T08:43:02.848Z,36.90
2019-01-12T08:45:31.410Z,40.43
2019-01-12T08:47:59.976Z,43.77
2019-01-12T08:50:28.656Z,49.67
2019-01-12T08:52:57.210Z,43.90
2019-01-12T08:55:25.776Z,43.90
2019-01-12T08:57:54.320Z,46.50
2019-01-12T09:00:22.875Z,41.93
2019-01-12T09:02:51.445Z,55.73
2019-01-12T09:05:20.057Z,52.07
2019-01-12T09:07:48.703Z,37.90
2019-01-12T09:10:19.650Z,35.07
2019-01-12T09:12:48.508Z,31.50
2019-01-12T09:15:17.222Z,43.47
2019-01-12T09:17:45.799Z,35.97
2019-01-12T09:20:15.499Z,34.57
2019-01-12T09:22:44.343Z,39.37
2019-01-12T09:25:13.802Z,53.50
2019-01-12T09:27:42.372Z,83.63
2019-01-12T09:30:14.548Z,83.73
2019-01-12T09:32:43.108Z,167.97
2019-01-12T09:35:11.720Z,52.27
2019-01-12T09:37:40.284Z,23.87
2019-01-12T09:40:12.020Z,30.27
2019-01-12T09:42:40.571Z,53.37
2019-01-12T09:45:10.842Z,43.43
2019-01-12T09:47:39.419Z,40.30
2019-01-12T09:50:13.388Z,46.37
2019-01-12T09:52:42.315Z,34.97
2019-01-12T09:55:12.532Z,36.93
2019-01-12T09:57:41.135Z,34.83
2019-01-12T10:00:15.826Z,33.10
2019-01-12T10:02:44.404Z,47.33
2019-01-12T10:05:13.006Z,36.33
2019-01-12T10:07:41.571Z,49.27
2019-01-12T10:10:17.928Z,40.43
2019-01-12T10:12:46.487Z,35.80
2019-01-12T10:15:15.059Z,30.47
2019-01-12T10:17:43.614Z,36.20
2019-01-12T10:20:18.647Z,26.17
2019-01-12T10:22:47.132Z,35.17
2019-01-12T10:25:16.136Z,28.93
2019-01-12T10:27:44.696Z,52.53
2019-01-12T10:30:18.794Z,45.70
2019-01-12T10:32:47.474Z,49.73
2019-01-12T10:35:16.107Z,39.13
2019-01-12T10:37:44.657Z,39.17
2019-01-12T10:40:16.721Z,31.37
2019-01-12T10:42:45.250Z,36.43
2019-01-12T10:45:15.635Z,53.07
2019-01-12T10:47:44.230Z,47.50
2019-01-12T10:50:16.157Z,42.90
2019-01-12T10:52:44.811Z,27.03
2019-01-12T10:55:14.408Z,47.80
2019-01-12T10:57:43.548Z,37.97
2019-01-12T11:00:17.529Z,41.10
2019-01-12T11:02:46.232Z,39.37
2019-01-12T11:05:15.019Z,58.23
2019-01-12T11:07:43.566Z,56.60
2019-01-12T11:10:13.359Z,48.43
2019-01-12T11:12:44.557Z,39.40
2019-01-12T11:15:21.023Z,48.80
2019-01-12T11:17:49.515Z,32.03
2019-01-12T11:20:18.142Z,36.77
2019-01-12T11:22:46.925Z,46.53
2019-01-12T11:25:16.418Z,46.27
2019-01-12T11:27:45.411Z,40.67
2019-01-12T11:30:19.252Z,41.70
2019-01-12T11:32:47.938Z,34.37
2019-01-12T11:35:16.489Z,44.60
2019-01-12T11:37:45.168Z,42.03
2019-01-12T11:40:16.762Z,51.17
2019-01-12T11:42:45.332Z,51.13
2019-01-12T11:45:13.934Z,51.10
2019-01-12T11:47:42.511Z,374.40
2019-01-12T11:50:13.452Z,30.90
2019-01-12T11:52:42.050Z,32.97
2019-01-12T11:55:12.748Z,39.97
2019-01-12T11:57:41.492Z,39.20
2019-01-12T12:00:15.953Z,21.93
2019-01-12T12:02:44.515Z,38.90
2019-01-12T12:05:13.165Z,30.50
2019-01-12T12:07:41.859Z,33.97
2019-01-12T12:10:12.671Z,29.77
2019-01-12T12:12:41.244Z,41.57
2019-01-12T12:15:12.725Z,31.03
2019-01-12T12:17:41.288Z,35.63
2019-01-12T12:20:15.520Z,33.37
2019-01-12T12:22:44.139Z,36.30
2019-01-12T12:25:12.786Z,30.73
2019-01-12T12:27:41.355Z,45.13
2019-01-12T12:30:15.770Z,32.37
2019-01-12T12:32:44.264Z,38.27
2019-01-12T12:35:12.934Z,41.13
2019-01-12T12:37:43.162Z,34.23
2019-01-12T12:40:17.016Z,37.00
2019-01-12T12:42:45.617Z,40.40
2019-01-12T12:45:16.879Z,40.87
2019-01-12T12:47:45.583Z,31.03
2019-01-12T12:50:15.645Z,32.27
2019-01-12T12:52:44.300Z,40.13
2019-01-12T12:55:14.728Z,35.40
2019-01-12T12:57:43.341Z,18.83
2019-01-12T13:00:32.863Z,40.17
2019-01-12T13:03:01.381Z,29.00
2019-01-12T13:05:30.047Z,23.97
2019-01-12T13:07:58.753Z,39.03
2019-01-12T13:10:28.508Z,39.53
2019-01-12T13:12:57.076Z,33.00
2019-01-12T13:15:25.762Z,27.50
2019-01-12T13:17:54.323Z,40.10
2019-01-12T13:20:22.983Z,28.03
2019-01-12T13:22:51.585Z,29.70
2019-01-12T13:25:20.268Z,33.57
2019-01-12T13:27:48.907Z,25.93
2019-01-12T13:30:22.592Z,34.37
2019-01-12T13:32:51.228Z,27.80
2019-01-12T13:35:19.893Z,35.07
2019-01-12T13:37:48.515Z,36.87
2019-01-12T13:40:19.467Z,31.77
2019-01-12T13:42:48.054Z,169.27
2019-01-12T13:45:18.575Z,169.47
2019-01-12T13:47:47.140Z,191.30
2019-01-12T13:50:18.279Z,190.90
2019-01-12T13:52:46.881Z,65.67
2019-01-12T13:55:17.924Z,28.47
2019-01-12T13:57:47.968Z,41.33
2019-01-12T14:00:25.475Z,49.40
2019-01-12T14:02:54.127Z,38.53
2019-01-12T14:05:23.138Z,31.07
2019-01-12T14:07:56.157Z,30.47
2019-01-12T14:10:22.036Z,49.37
2019-01-12T14:12:50.710Z,46.43
2019-01-12T14:15:19.614Z,48.67
2019-01-12T14:17:48.233Z,45.70
2019-01-12T14:20:27.761Z,38.57
2019-01-12T14:22:56.432Z,59.07
2019-01-12T14:25:25.096Z,47.73
2019-01-12T14:27:54.968Z,31.57
2019-01-12T14:30:23.721Z,46.13
2019-01-12T14:32:52.464Z,37.70
2019-01-12T14:35:21.258Z,56.27
2019-01-12T14:37:49.917Z,76.80
2019-01-12T14:40:19.551Z,89.70
2019-01-12T14:42:48.244Z,173.90
2019-01-12T14:45:25.184Z,84.47
2019-01-12T14:47:53.859Z,48.83
2019-01-12T14:50:24.074Z,69.00
2019-01-12T14:52:52.714Z,70.80
2019-01-12T14:55:22.814Z,90.17
2019-01-12T14:57:51.380Z,80.80
2019-01-12T15:00:25.696Z,84.90
2019-01-12T15:02:54.260Z,51.40
2019-01-12T15:05:28.010Z,32.80
2019-01-12T15:07:56.617Z,43.37
2019-01-12T15:10:25.291Z,35.33
2019-01-12T15:12:53.948Z,34.80
2019-01-12T15:15:22.565Z,31.00
2019-01-12T15:17:51.167Z,59.63
2019-01-12T15:20:22.364Z,34.80
2019-01-12T15:22:51.011Z,37.43
2019-01-12T15:25:19.708Z,30.50
2019-01-12T15:27:48.367Z,37.87
2019-01-12T15:30:23.327Z,28.83
2019-01-12T15:32:51.964Z,31.80
2019-01-12T15:35:21.528Z,26.80
2019-01-12T15:37:50.094Z,30.30
2019-01-12T15:40:20.730Z,18.90
2019-01-12T15:42:49.359Z,32.13
2019-01-12T15:45:23.599Z,33.07
2019-01-12T15:47:52.251Z,27.27
2019-01-12T15:50:22.892Z,41.97
2019-01-12T15:52:51.495Z,31.03
2019-01-12T15:55:20.221Z,28.07
2019-01-12T15:57:48.853Z,25.83
2019-01-12T16:00:19.838Z,46.77
2019-01-12T16:02:48.445Z,24.67
2019-01-12T16:05:17.158Z,23.77
2019-01-12T16:07:45.869Z,24.70
2019-01-12T16:10:15.189Z,21.93
2019-01-12T16:12:43.824Z,29.77
2019-01-12T16:15:15.299Z,20.63
2019-01-12T16:17:43.944Z,16.50
2019-01-12T16:20:18.147Z,22.67
2019-01-12T16:22:46.770Z,29.70
2019-01-12T16:25:15.334Z,19.97
2019-01-12T16:27:43.964Z,22.33
2019-01-12T16:30:18.043Z,24.70
2019-01-12T16:32:47.145Z,27.37
2019-01-12T16:35:15.708Z,18.13
2019-01-12T16:37:44.497Z,25.90
2019-01-12T16:40:18.444Z,27.80
2019-01-12T16:42:47.442Z,90.70
2019-01-12T16:45:16.717Z,25.13
2019-01-12T16:47:45.213Z,34.03
2019-01-12T16:50:13.790Z,30.17
2019-01-12T16:52:42.401Z,29.03
2019-01-12T16:55:13.642Z,34.10
2019-01-12T16:57:42.192Z,22.40
2019-01-12T17:00:21.799Z,30.07
2019-01-12T17:02:50.447Z,23.83
2019-01-12T17:05:19.039Z,18.50
2019-01-12T17:07:47.622Z,21.03
2019-01-12T17:10:18.722Z,19.53
2019-01-12T17:12:47.308Z,37.70
2019-01-12T17:15:18.088Z,33.37
2019-01-12T17:17:46.647Z,23.90
2019-01-12T17:20:20.973Z,25.13
2019-01-12T17:22:50.390Z,21.07
2019-01-12T17:25:19.857Z,19.47
2019-01-12T17:27:48.415Z,22.43
2019-01-12T17:30:19.099Z,20.47
2019-01-12T17:32:47.743Z,28.03
2019-01-12T17:35:16.242Z,20.70
2019-01-12T17:37:45.723Z,26.03
2019-01-12T17:40:15.544Z,19.43
2019-01-12T17:42:44.182Z,32.87
2019-01-12T17:45:20.598Z,168.27
2019-01-12T17:47:49.220Z,183.97
2019-01-12T17:50:19.619Z,291.90
2019-01-12T17:52:48.230Z,23.30
2019-01-12T17:55:19.334Z,13.40
2019-01-12T17:57:47.973Z,20.23
2019-01-12T18:00:28.446Z,32.87
2019-01-12T18:02:57.078Z,20.50
2019-01-12T18:05:25.653Z,18.10
2019-01-12T18:07:54.285Z,22.07
2019-01-12T18:10:22.858Z,26.23
2019-01-12T18:12:51.504Z,36.27
2019-01-12T18:15:20.174Z,27.13
2019-01-12T18:17:48.822Z,26.20
2019-01-12T18:20:18.686Z,27.90
2019-01-12T18:22:47.257Z,25.90
2019-01-12T18:25:16.929Z,20.10
2019-01-12T18:27:45.698Z,36.43
2019-01-12T18:30:17.456Z,16.57
2019-01-12T18:32:46.038Z,33.70
2019-01-12T18:35:14.598Z,16.00
2019-01-12T18:37:43.341Z,13.70
2019-01-12T18:40:17.344Z,23.80
2019-01-12T18:42:46.271Z,21.67
2019-01-12T18:45:16.770Z,16.13
2019-01-12T18:47:45.349Z,17.83
2019-01-12T18:50:16.565Z,19.63
2019-01-12T18:52:45.239Z,14.20
2019-01-12T18:55:14.365Z,13.07
2019-01-12T18:57:43.353Z,14.03
2019-01-12T19:00:19.979Z,16.40
2019-01-12T19:02:48.560Z,23.07
2019-01-12T19:05:17.123Z,14.87
2019-01-12T19:07:45.741Z,23.07
2019-01-12T19:10:14.783Z,13.53
2019-01-12T19:12:43.288Z,17.80
2019-01-12T19:15:17.337Z,12.50
2019-01-12T19:17:45.913Z,14.70
2019-01-12T19:20:16.087Z,11.50
2019-01-12T19:22:44.870Z,20.90
2019-01-12T19:25:14.706Z,19.87
2019-01-12T19:27:44.281Z,13.77
2019-01-12T19:30:17.900Z,32.53
2019-01-12T19:32:46.549Z,12.03
2019-01-12T19:35:15.619Z,5.93
2019-01-12T19:37:44.357Z,15.40
2019-01-12T19:40:15.283Z,21.83
2019-01-12T19:42:44.029Z,162.67
2019-01-12T19:45:14.357Z,156.43
2019-01-12T19:47:43.022Z,168.43
2019-01-12T19:50:19.621Z,162.97
2019-01-12T19:52:48.266Z,168.90
2019-01-12T19:55:17.004Z,182.70
2019-01-12T19:57:45.733Z,157.83
2019-01-12T20:00:19.876Z,158.77
2019-01-12T20:02:48.559Z,158.97
2019-01-12T20:05:17.252Z,154.23
2019-01-12T20:07:45.908Z,167.43
2019-01-12T20:10:16.481Z,166.43
2019-01-12T20:12:45.187Z,170.90
2019-01-12T20:15:17.041Z,154.60
2019-01-12T20:17:45.725Z,161.20
2019-01-12T20:20:15.520Z,151.63
2019-01-12T20:22:44.281Z,153.07
2019-01-12T20:25:16.190Z,156.57
2019-01-12T20:27:44.867Z,164.27
2019-01-12T20:30:17.108Z,150.97
2019-01-12T20:32:51.907Z,149.67
2019-01-12T20:35:26.383Z,152.13
2019-01-12T20:38:09.989Z,161.90
2019-01-12T20:40:44.629Z,157.80
2019-01-12T20:43:16.435Z,150.10
2019-01-12T20:46:12.249Z,150.40
2019-01-12T20:48:52.568Z,146.17
2019-01-12T20:51:45.192Z,174.90
2019-01-12T20:54:47.714Z,171.27
2019-01-12T20:57:39.077Z,155.07
2019-01-12T21:00:44.494Z,157.73
2019-01-12T21:03:29.093Z,165.47
2019-01-12T21:06:03.517Z,165.30
2019-01-12T21:08:42.703Z,160.03
2019-01-12T21:11:34.249Z,160.93
2019-01-12T21:14:14.843Z,166.80
2019-01-12T21:16:43.471Z,158.80
2019-01-12T21:19:12.107Z,154.07
2019-01-12T21:21:41.122Z,166.70
2019-01-12T21:24:09.793Z,153.03
2019-01-12T21:26:38.450Z,155.87
2019-01-12T21:29:07.022Z,165.07
2019-01-12T21:31:36.585Z,164.23
2019-01-12T21:34:05.178Z,154.57
2019-01-12T21:36:35.289Z,159.57
2019-01-12T21:39:05.529Z,156.97
2019-01-12T21:41:34.074Z,167.17
2019-01-12T21:44:02.745Z,147.77
2019-01-12T21:46:31.366Z,148.03
2019-01-12T21:49:00.013Z,152.90
2019-01-12T21:51:28.659Z,156.73
2019-01-12T21:53:57.358Z,153.77
2019-01-12T21:56:25.991Z,155.83
2019-01-12T21:58:54.649Z,141.10
2019-01-12T22:01:23.341Z,153.53
2019-01-12T22:03:51.902Z,143.00
2019-01-12T22:06:20.492Z,117.67
2019-01-12T22:08:49.225Z,121.83
2019-01-12T22:11:17.870Z,139.70
2019-01-12T22:13:46.859Z,155.40
2019-01-12T22:16:15.512Z,154.40
2019-01-12T22:18:44.164Z,139.07
2019-01-12T22:21:12.667Z,154.97
2019-01-12T22:23:41.385Z,154.03
2019-01-12T22:26:10.000Z,126.67
2019-01-12T22:28:39.106Z,138.93
2019-01-12T22:31:07.783Z,142.87
2019-01-12T22:33:37.328Z,124.23
2019-01-12T22:36:05.839Z,138.30
2019-01-12T22:38:34.454Z,151.70
2019-01-12T22:41:03.095Z,152.00
2019-01-12T22:43:31.670Z,159.00
2019-01-12T22:46:00.277Z,153.13
2019-01-12T22:48:28.851Z,147.87
2019-01-12T22:50:57.490Z,141.03
2019-01-12T22:53:26.177Z,144.17
2019-01-12T22:55:54.857Z,140.73
2019-01-12T22:58:23.551Z,166.83
2019-01-12T23:00:55.619Z,143.73
2019-01-12T23:03:24.316Z,158.23
2019-01-12T23:05:52.965Z,142.37
2019-01-12T23:08:21.647Z,136.20
2019-01-12T23:10:50.276Z,136.83
2019-01-12T23:13:18.922Z,130.07
2019-01-12T23:15:47.612Z,116.37
2019-01-12T23:18:16.256Z,126.77
2019-01-12T23:20:44.858Z,130.37
2019-01-12T23:23:13.537Z,125.90
2019-01-12T23:25:42.261Z,102.33
2019-01-12T23:28:10.821Z,104.87
2019-01-12T23:30:39.533Z,104.33
2019-01-12T23:33:08.167Z,111.47
2019-01-12T23:35:37.672Z,149.83
2019-01-12T23:38:06.362Z,120.57
2019-01-12T23:40:35.009Z,118.37
2019-01-12T23:43:03.664Z,95.07
2019-01-12T23:45:32.349Z,112.40
2019-01-12T23:48:00.949Z,91.27
2019-01-12T23:50:29.604Z,78.23
2019-01-12T23:52:58.261Z,68.30
2019-01-12T23:55:26.897Z,80.63
2019-01-12T23:57:57.101Z,112.07
